Time;durP1;ratioP1;P1;durP2;ratioP2;P2;SDS_P1;SDS_P2;PMS_P1;PMS_P2;Temp;Humidity;BMP_temperature;BMP_pressure;BME280_temperature;BME280_humidity;BME280_pressure;Samples;Min_cycle;Max_cycle;Signal;HPM_P1;HPM_P2
2022/08/04 00:01:49;;;;;;;4.03;2.53;;;;;;;26.88;55.94;99918.78;5094476;28;20443;-63
2022/08/04 00:04:30;;;;;;;12.70;3.87;;;;;;;26.89;55.80;99916.72;5094467;28;20456;-63
2022/08/04 00:07:19;;;;;;;4.60;2.73;;;;;;;26.87;56.02;99914.25;5093350;28;20956;-63
2022/08/04 00:09:56;;;;;;;6.50;3.27;;;;;;;26.86;55.67;99912.63;5083456;28;20444;-63
2022/08/04 00:12:21;;;;;;;4.53;2.97;;;;;;;26.84;55.23;99906.47;5094231;28;20439;-63
2022/08/04 00:14:48;;;;;;;5.40;2.70;;;;;;;26.85;55.90;99910.19;5093025;28;20420;-63
2022/08/04 00:17:16;;;;;;;4.67;2.93;;;;;;;26.86;55.47;99908.91;5094107;28;20220;-63
2022/08/04 00:19:46;;;;;;;3.03;2.50;;;;;;;26.85;55.52;99910.97;5094133;28;20416;-63
2022/08/04 00:22:12;;;;;;;4.30;2.93;;;;;;;26.84;55.80;99909.34;5094201;28;20493;-63
2022/08/04 00:24:37;;;;;;;3.90;3.00;;;;;;;26.83;55.56;99904.81;5093841;28;20429;-63
2022/08/04 00:27:03;;;;;;;4.57;2.90;;;;;;;26.84;55.98;99908.56;5094055;28;20177;-63
2022/08/04 00:29:29;;;;;;;4.87;3.30;;;;;;;26.84;56.04;99911.44;5094121;28;20193;-63
2022/08/04 00:31:54;;;;;;;5.07;2.63;;;;;;;26.82;55.40;99911.91;5075768;28;20270;-63
2022/08/04 00:34:20;;;;;;;4.20;3.03;;;;;;;26.82;55.86;99917.69;5093217;28;20194;-63
2022/08/04 00:36:45;;;;;;;4.30;3.17;;;;;;;26.82;55.48;99920.59;5075651;28;20213;-63
2022/08/04 00:39:11;;;;;;;3.43;2.80;;;;;;;26.83;55.98;99919.31;5093187;28;20183;-63
2022/08/04 00:41:42;;;;;;;5.03;2.87;;;;;;;26.83;55.89;99919.31;5093015;28;20193;-63
2022/08/04 00:44:27;;;;;;;4.23;2.80;;;;;;;26.85;55.49;99918.88;5092857;28;20614;-63
2022/08/04 00:47:28;;;;;;;5.80;3.30;;;;;;;26.84;55.80;99923.84;5085564;28;20405;-63
2022/08/04 00:50:04;;;;;;;4.10;2.87;;;;;;;26.82;56.18;99926.38;5072585;28;20413;-63
2022/08/04 00:52:54;;;;;;;4.13;3.20;;;;;;;26.81;56.04;99927.66;5074539;28;20428;-63
2022/08/04 00:55:38;;;;;;;4.97;3.20;;;;;;;26.78;55.94;99922.72;5073037;28;20410;-63
2022/08/04 00:58:26;;;;;;;5.27;3.03;;;;;;;26.80;56.29;99930.97;5073023;28;20433;-63
2022/08/04 01:01:00;;;;;;;4.80;3.43;;;;;;;26.79;56.29;99930.16;5073434;28;20417;-63
2022/08/04 01:03:48;;;;;;;7.30;3.13;;;;;;;26.81;55.67;99923.91;5075673;28;20424;-63
2022/08/04 01:06:16;;;;;;;4.27;3.10;;;;;;;26.81;56.59;99932.63;5072315;28;20417;-63
2022/08/04 01:08:58;;;;;;;4.07;2.53;;;;;;;26.81;55.71;99933.44;5072134;28;20421;-63
2022/08/04 01:11:35;;;;;;;3.30;2.63;;;;;;;26.82;55.83;99935.06;5071896;28;20505;-63
2022/08/04 01:14:19;;;;;;;5.50;2.70;;;;;;;26.81;56.26;99939.22;5071959;28;20405;-63
2022/08/04 01:17:08;;;;;;;3.90;2.63;;;;;;;26.81;55.88;99936.34;5073135;28;21359;-63
2022/08/04 01:19:55;;;;;;;4.00;2.77;;;;;;;26.81;56.20;99936.34;5078028;28;20439;-63
2022/08/04 01:22:33;;;;;;;3.83;2.50;;;;;;;26.81;55.95;99933.44;5093186;28;20446;-63
2022/08/04 01:25:13;;;;;;;4.63;2.83;;;;;;;26.81;55.83;99938.41;5092798;28;20469;-63
2022/08/04 01:27:46;;;;;;;5.00;3.27;;;;;;;26.80;55.85;99934.69;5092927;28;20420;-63
2022/08/04 01:30:11;;;;;;;3.73;2.67;;;;;;;26.81;56.30;99929.72;5092599;28;20424;-63
2022/08/04 01:32:38;;;;;;;3.90;2.57;;;;;;;26.80;55.69;99933.88;5091287;28;20504;-63
2022/08/04 01:35:12;;;;;;;3.83;2.53;;;;;;;26.81;55.92;99926.81;5088240;28;20181;-63
2022/08/04 01:37:52;;;;;;;4.53;2.80;;;;;;;26.79;56.41;99929.34;5091336;28;20522;-63
2022/08/04 01:40:17;;;;;;;3.43;2.70;;;;;;;26.80;55.83;99922.28;5090963;28;20420;-63
2022/08/04 01:42:44;;;;;;;4.57;2.53;;;;;;;26.79;56.26;99929.34;5092456;28;20424;-63
2022/08/04 01:45:10;;;;;;;4.07;3.13;;;;;;;26.79;55.53;99932.25;5091508;28;20331;-63
2022/08/04 01:47:37;;;;;;;3.40;2.50;;;;;;;26.78;55.89;99933.50;5092455;28;20526;-63
2022/08/04 01:50:07;;;;;;;3.60;2.67;;;;;;;26.78;55.80;99933.50;5090801;28;20420;-63
2022/08/04 01:52:34;;;;;;;3.97;2.83;;;;;;;26.76;56.15;99922.38;5091879;28;20432;-63
2022/08/04 01:55:00;;;;;;;4.93;3.00;;;;;;;26.76;55.90;99922.38;5092087;28;20428;-63
2022/08/04 01:57:25;;;;;;;3.87;2.60;;;;;;;26.75;56.18;99926.50;5091043;28;20455;-63
2022/08/04 01:59:51;;;;;;;5.50;2.70;;;;;;;26.76;55.62;99921.53;5092351;28;20621;-63
2022/08/04 02:02:16;;;;;;;5.13;3.00;;;;;;;26.76;56.14;99927.34;5092103;28;20539;-63
2022/08/04 02:04:42;;;;;;;4.17;2.90;;;;;;;26.76;55.64;99927.34;5092049;28;20671;-63
2022/08/04 02:07:51;;;;;;;5.50;3.17;;;;;;;26.75;56.00;99925.72;5092069;28;20210;-63
2022/08/04 02:11:01;;;;;;;7.80;2.90;;;;;;;26.75;55.64;99935.19;5035960;28;20229;-63
2022/08/04 02:13:38;;;;;;;4.60;2.80;;;;;;;26.73;55.85;99925.31;5066915;28;20839;-63
2022/08/04 02:16:26;;;;;;;3.27;2.37;;;;;;;26.73;55.91;99926.16;5071918;28;20448;-63
2022/08/04 02:19:00;;;;;;;4.20;2.63;;;;;;;26.72;55.47;99921.63;5071784;28;20429;-63
2022/08/04 02:21:26;;;;;;;3.40;2.50;;;;;;;26.72;55.23;99921.63;5071370;28;20761;-63
2022/08/04 02:23:53;;;;;;;3.83;2.50;;;;;;;26.73;55.87;99926.16;5070403;28;20432;-63
2022/08/04 02:26:19;;;;;;;4.47;2.93;;;;;;;26.73;56.04;99926.16;5071496;28;20202;-63
2022/08/04 02:29:02;;;;;;;5.10;3.30;;;;;;;26.73;55.70;99920.34;5069388;28;20420;-63
2022/08/04 02:31:31;;;;;;;4.03;3.10;;;;;;;26.73;55.69;99919.53;5070838;28;20417;-63
2022/08/04 02:34:05;;;;;;;5.97;2.80;;;;;;;26.73;55.38;99926.16;5069816;28;20457;-63
2022/08/04 02:36:36;;;;;;;4.30;3.07;;;;;;;26.73;55.66;99919.53;5070794;28;20499;-63
2022/08/04 02:39:03;;;;;;;5.47;3.00;;;;;;;26.72;55.78;99918.72;5070977;28;20418;-63
2022/08/04 02:41:29;;;;;;;4.50;2.70;;;;;;;26.73;55.21;99919.53;5080318;28;20433;-63
2022/08/04 02:43:59;;;;;;;5.27;3.00;;;;;;;26.71;55.39;99920.00;5091621;28;20416;-63
2022/08/04 02:46:25;;;;;;;4.00;2.83;;;;;;;26.71;55.38;99922.91;5089186;28;20418;-63
2022/08/04 02:48:52;;;;;;;7.37;2.80;;;;;;;26.71;55.66;99914.22;5091182;28;20436;-63
2022/08/04 02:51:23;;;;;;;4.37;2.80;;;;;;;26.71;54.98;99916.28;5091613;28;20315;-63
2022/08/04 02:53:49;;;;;;;6.57;3.37;;;;;;;26.71;55.64;99920.00;5090323;28;20425;-63
2022/08/04 02:56:14;;;;;;;4.13;2.30;;;;;;;26.70;55.75;99920.44;5081624;28;20546;-63
2022/08/04 02:58:40;;;;;;;2.90;2.40;;;;;;;26.70;55.36;99924.13;5053067;28;20645;-63
2022/08/04 03:01:05;;;;;;;3.97;2.67;;;;;;;26.69;55.00;99922.50;5069692;28;20244;-63
2022/08/04 03:03:42;;;;;;;3.90;2.93;;;;;;;26.69;55.45;99924.59;5071075;28;20662;-63
2022/08/04 03:06:10;;;;;;;7.83;2.80;;;;;;;26.68;55.63;99923.78;5069813;28;20162;-63
2022/08/04 03:09:07;;;;;;;8.50;2.90;;;;;;;26.68;55.29;99923.78;5070989;28;20567;-63
2022/08/04 03:11:47;;;;;;;4.20;2.97;;;;;;;26.67;55.03;99922.16;5070788;28;20831;-63
2022/08/04 03:14:27;;;;;;;3.67;2.40;;;;;;;26.67;55.45;99927.13;5070908;28;20421;-63
2022/08/04 03:17:17;;;;;;;7.03;3.60;;;;;;;26.68;55.42;99926.66;5072573;28;21737;-63
2022/08/04 03:19:45;;;;;;;3.87;2.73;;;;;;;26.66;55.64;99917.63;5090962;28;20914;-63
2022/08/04 03:22:27;;;;;;;3.77;2.60;;;;;;;26.67;55.37;99921.31;5091131;28;20447;-63
2022/08/04 03:25:24;;;;;;;4.00;2.90;;;;;;;26.66;55.37;99917.63;5091160;28;20427;-63
2022/08/04 03:27:49;;;;;;;4.67;2.67;;;;;;;26.66;55.39;99920.53;5091015;28;20404;-63
2022/08/04 03:30:18;;;;;;;5.20;3.00;;;;;;;26.66;54.58;99920.53;5089418;28;20470;-63
2022/08/04 03:33:22;;;;;;;3.37;2.57;;;;;;;26.66;55.31;99923.41;5090992;28;20166;-63
2022/08/04 03:36:24;;;;;;;4.20;2.60;;;;;;;26.65;55.30;99924.66;5083638;28;20434;-63
2022/08/04 03:38:53;;;;;;;4.00;2.97;;;;;;;26.65;55.29;99920.97;5090833;28;20404;-63
2022/08/04 03:41:49;;;;;;;4.17;2.40;;;;;;;26.64;55.24;99928.03;5090813;28;20451;-63
2022/08/04 03:44:45;;;;;;;3.43;2.60;;;;;;;26.64;54.63;99933.81;5089437;28;20424;-63
2022/08/04 03:47:20;;;;;;;3.83;2.57;;;;;;;26.64;55.14;99925.91;5087854;28;20443;-63
2022/08/04 03:49:55;;;;;;;5.43;3.10;;;;;;;26.63;55.13;99935.06;5089592;28;20420;-63
2022/08/04 03:55:54;;;;;;;4.03;3.07;;;;;;;26.61;54.99;99937.59;5070395;28;20396;-63
2022/08/04 03:58:49;;;;;;;4.03;3.30;;;;;;;26.60;54.56;99935.97;5054434;28;20808;-63
2022/08/04 04:01:34;;;;;;;5.43;2.73;;;;;;;26.57;54.60;99923.19;5068468;28;20977;-63
2022/08/04 04:04:24;;;;;;;6.50;3.30;;;;;;;26.56;54.96;99927.34;5068052;28;20452;-63
2022/08/04 04:07:16;;;;;;;3.57;2.60;;;;;;;26.58;54.49;99942.19;5068284;28;20449;-63
2022/08/04 04:10:02;;;;;;;4.30;3.30;;;;;;;26.59;54.49;99938.03;5071435;28;21273;-63
2022/08/04 04:12:37;;;;;;;3.70;2.93;;;;;;;26.59;54.46;99935.13;5077412;28;20511;-63
2022/08/04 04:15:07;;;;;;;4.43;3.17;;;;;;;26.56;54.12;99938.94;5094294;28;20415;-63
2022/08/04 04:17:48;;;;;;;4.30;3.03;;;;;;;26.53;54.35;99939.78;5093043;28;20459;-63
2022/08/04 04:20:42;;;;;;;4.77;3.17;;;;;;;26.53;53.96;99944.75;5094287;28;20526;-63
2022/08/04 04:23:11;;;;;;;3.93;3.00;;;;;;;26.53;54.69;99948.47;5092902;28;20971;-63
2022/08/04 04:26:05;;;;;;;5.07;3.00;;;;;;;26.54;54.38;99941.41;5092800;28;20878;-63
2022/08/04 04:28:53;;;;;;;3.53;2.70;;;;;;;26.55;54.01;99948.84;5093992;28;20825;-63
2022/08/04 04:31:50;;;;;;;4.53;3.27;;;;;;;26.55;54.37;99945.97;5092655;28;20524;-63
2022/08/04 04:34:24;;;;;;;5.00;2.90;;;;;;;26.55;54.22;99950.91;5092707;28;20758;-63
2022/08/04 04:37:16;;;;;;;4.40;2.83;;;;;;;26.55;54.27;99943.06;5093643;28;20459;-63
2022/08/04 04:40:09;;;;;;;3.93;2.57;;;;;;;26.53;54.56;99936.88;5092608;28;20416;-63
2022/08/04 04:42:52;;;;;;;4.03;3.07;;;;;;;26.52;53.86;99941.03;5093541;28;20420;-63
2022/08/04 04:45:33;;;;;;;3.93;3.13;;;;;;;26.52;54.57;99954.69;5092532;28;20783;-63
2022/08/04 04:48:30;;;;;;;4.20;2.80;;;;;;;26.52;54.72;99949.72;5092305;28;20416;-63
2022/08/04 04:51:18;;;;;;;5.47;3.17;;;;;;;26.52;54.67;99952.63;5084250;28;20429;-63
2022/08/04 04:53:50;;;;;;;3.60;2.80;;;;;;;26.52;54.46;99954.69;5092094;28;20461;-63
2022/08/04 04:56:28;;;;;;;5.90;3.10;;;;;;;26.52;54.92;99951.81;5074147;28;20536;-63
2022/08/04 04:58:54;;;;;;;9.27;3.10;;;;;;;26.52;54.49;99958.41;5090442;28;20520;-63
2022/08/04 05:01:22;;;;;;;4.90;2.57;;;;;;;26.53;54.57;99953.44;5090456;28;20427;-63
2022/08/04 05:03:48;;;;;;;4.70;3.03;;;;;;;26.52;54.37;99958.41;5093140;28;20319;-63
2022/08/04 05:06:42;;;;;;;4.30;3.00;;;;;;;26.54;54.48;99955.09;5091950;28;20449;-63
2022/08/04 05:09:46;;;;;;;5.63;2.83;;;;;;;26.55;54.29;99965.41;5076069;28;20227;-63
2022/08/04 05:12:31;;;;;;;4.23;3.33;;;;;;;26.54;54.18;99955.88;5010408;28;20474;-63
2022/08/04 05:14:56;;;;;;;3.90;3.10;;;;;;;26.55;54.68;99959.63;5010917;28;20504;-63
2022/08/04 05:17:41;;;;;;;5.57;3.30;;;;;;;26.54;54.08;99958.78;5022133;28;20468;-63
2022/08/04 05:20:19;;;;;;;3.80;3.00;;;;;;;26.54;54.03;99964.56;5082641;28;20248;-63
2022/08/04 05:22:51;;;;;;;5.17;2.73;;;;;;;26.54;54.52;99967.47;5070602;28;21090;-63
2022/08/04 05:25:24;;;;;;;4.27;2.73;;;;;;;26.55;54.24;99972.03;5071528;28;20500;-63
2022/08/04 05:28:05;;;;;;;4.97;3.63;;;;;;;26.56;54.20;99972.84;5073747;28;20466;-63
2022/08/04 05:30:33;;;;;;;4.70;3.00;;;;;;;26.54;54.47;99973.25;5071347;28;20424;-63
2022/08/04 05:33:07;;;;;;;4.70;3.27;;;;;;;26.55;54.57;99982.78;5071208;28;20464;-63
2022/08/04 05:35:35;;;;;;;4.37;3.00;;;;;;;26.54;54.11;99976.16;5070187;28;20413;-63
2022/08/04 05:38:02;;;;;;;4.47;3.30;;;;;;;26.54;54.14;99976.16;5086006;28;20470;-63
2022/08/04 05:40:27;;;;;;;5.50;3.17;;;;;;;26.55;54.11;99982.78;5074931;28;20432;-63
2022/08/04 05:42:53;;;;;;;3.90;2.73;;;;;;;26.54;54.42;99976.16;5074104;28;20412;-63
2022/08/04 05:45:18;;;;;;;4.20;2.80;;;;;;;26.53;54.20;99980.31;5090233;28;20212;-63
2022/08/04 05:47:43;;;;;;;6.10;3.20;;;;;;;26.54;54.64;99981.94;5072176;28;20176;-63
2022/08/04 05:50:09;;;;;;;4.50;2.87;;;;;;;26.53;54.61;99980.31;5090810;28;20178;-63
2022/08/04 05:52:35;;;;;;;3.97;2.70;;;;;;;26.54;54.69;99987.75;5090927;28;20174;-63
2022/08/04 05:55:01;;;;;;;5.20;2.77;;;;;;;26.54;54.44;99993.53;5080188;28;20256;-63
2022/08/04 05:57:26;;;;;;;3.63;2.60;;;;;;;26.54;54.30;99989.84;5070570;28;20494;-63
2022/08/04 05:59:52;;;;;;;5.93;3.23;;;;;;;26.53;54.80;99991.06;5053943;28;20221;-63
2022/08/04 06:02:17;;;;;;;5.67;3.43;;;;;;;26.52;54.30;99993.16;5069376;28;20241;-63
2022/08/04 06:04:45;;;;;;;5.10;3.13;;;;;;;26.52;54.27;99993.16;5068609;28;20225;-63
2022/08/04 06:07:11;;;;;;;4.60;2.90;;;;;;;26.53;54.93;99996.88;5075132;28;20213;-63
2022/08/04 06:09:37;;;;;;;2.97;2.47;;;;;;;26.53;54.65;99996.88;5089772;28;20425;-63
2022/08/04 06:12:06;;;;;;;4.00;2.87;;;;;;;26.53;54.95;99997.69;5089829;28;20448;-63
2022/08/04 06:14:40;;;;;;;4.83;3.00;;;;;;;26.53;55.00;99993.97;5090191;28;20213;-63
2022/08/04 06:17:06;;;;;;;5.30;3.13;;;;;;;26.54;54.83;99995.63;5090560;28;20466;-63
2022/08/04 06:19:34;;;;;;;7.67;3.27;;;;;;;26.53;55.05;99991.91;5090690;28;20444;-63
2022/08/04 06:21:59;;;;;;;3.70;2.53;;;;;;;26.53;54.79;99991.06;5090717;28;20850;-63
2022/08/04 06:24:25;;;;;;;6.63;3.00;;;;;;;26.53;55.24;99996.88;5090788;28;20421;-63
2022/08/04 06:26:51;;;;;;;5.73;3.80;;;;;;;26.53;55.10;99996.88;5073684;28;20197;-63
2022/08/04 06:29:26;;;;;;;7.60;3.67;;;;;;;26.52;54.72;99996.06;5091518;28;20428;-63
2022/08/04 06:32:01;;;;;;;8.03;3.60;;;;;;;26.52;55.19;99993.16;5090521;28;20231;-63
2022/08/04 06:34:26;;;;;;;5.27;3.47;;;;;;;26.53;55.36;99999.75;5089461;28;20416;-63
2022/08/04 06:36:52;;;;;;;5.70;3.37;;;;;;;26.53;55.31;99991.06;5090417;28;20910;-63
2022/08/04 06:39:17;;;;;;;6.97;3.73;;;;;;;26.53;55.41;99996.88;5078320;28;20194;-63
2022/08/04 06:41:43;;;;;;;5.13;3.13;;;;;;;26.51;54.94;99997.34;5081504;28;20183;-63
2022/08/04 06:44:09;;;;;;;8.80;4.20;;;;;;;26.51;55.19;99996.50;5091440;28;20179;-63
2022/08/04 06:46:36;;;;;;;9.50;3.63;;;;;;;26.51;55.01;99993.59;5077281;28;20210;-63
2022/08/04 06:49:03;;;;;;;7.50;4.20;;;;;;;26.50;55.47;99997.78;5053189;28;20554;-63
2022/08/04 06:51:29;;;;;;;6.37;3.83;;;;;;;26.34;56.10;100001.34;5069920;28;20471;-63
2022/08/04 06:53:55;;;;;;;9.10;3.37;;;;;;;26.35;55.31;100003.00;5069815;28;20413;-63
2022/08/04 06:56:20;;;;;;;11.63;3.73;;;;;;;26.36;55.83;99998.03;5073726;28;20459;-63
2022/08/04 06:58:45;;;;;;;6.30;3.67;;;;;;;26.39;55.57;100009.53;5071191;28;20175;-63
2022/08/04 07:01:15;;;;;;;5.87;3.80;;;;;;;26.46;55.75;100003.63;5072747;28;20184;-63
2022/08/04 07:03:41;;;;;;;5.80;3.60;;;;;;;26.44;55.59;99994.56;5091228;28;20550;-63
2022/08/04 07:06:06;;;;;;;11.20;3.90;;;;;;;26.49;54.96;100001.94;5089845;28;20416;-63
2022/08/04 07:08:32;;;;;;;5.87;3.33;;;;;;;26.50;54.96;99995.66;5089878;28;20235;-63
2022/08/04 07:10:57;;;;;;;7.97;4.00;;;;;;;26.48;55.21;99994.47;5089557;28;20234;-63
2022/08/04 07:13:23;;;;;;;6.27;3.43;;;;;;;26.51;55.02;99999.41;5089941;28;20201;-63
2022/08/04 07:15:48;;;;;;;4.10;3.00;;;;;;;26.52;54.73;100004.75;5091173;28;20585;-63
2022/08/04 07:18:13;;;;;;;7.23;3.90;;;;;;;26.53;54.91;100000.59;5090974;28;20214;-63
2022/08/04 07:20:43;;;;;;;6.80;3.80;;;;;;;26.51;54.39;99991.53;5090997;28;20227;-63
2022/08/04 07:23:10;;;;;;;4.50;3.27;;;;;;;26.53;54.69;99993.97;5091149;28;20170;-63
2022/08/04 07:25:36;;;;;;;7.83;3.97;;;;;;;26.53;53.91;100000.59;5073292;28;20424;-63
2022/08/04 07:28:01;;;;;;;6.80;3.77;;;;;;;26.54;54.38;99996.44;5106356;28;20775;-63
2022/08/04 07:30:27;;;;;;;7.80;4.27;;;;;;;26.55;53.79;100005.94;5090878;28;20599;-63
2022/08/04 07:32:53;;;;;;;6.47;4.20;;;;;;;26.56;54.12;99993.97;5087311;28;20228;-63
2022/08/04 07:35:20;;;;;;;4.93;3.00;;;;;;;26.60;53.77;100005.47;5090527;28;20656;-63
2022/08/04 07:37:46;;;;;;;6.50;3.43;;;;;;;26.59;52.26;99995.94;5073030;28;20206;-63
2022/08/04 07:40:11;;;;;;;5.87;3.80;;;;;;;26.60;53.13;99996.78;5090948;28;20412;-63
2022/08/04 07:42:37;;;;;;;7.53;3.00;;;;;;;26.62;52.89;99994.25;5089530;28;20175;-63
2022/08/04 07:45:02;;;;;;;6.40;3.83;;;;;;;26.64;52.70;99998.34;5092318;28;20264;-63
2022/08/04 07:47:28;;;;;;;3.70;3.10;;;;;;;26.68;51.76;99992.47;5094025;28;20177;-63
2022/08/04 07:49:53;;;;;;;4.60;3.67;;;;;;;26.70;52.13;99996.56;5092527;28;20174;-63
2022/08/04 07:52:19;;;;;;;7.17;3.10;;;;;;;26.72;50.81;99996.13;5093113;28;20183;-63
2022/08/04 07:54:45;;;;;;;7.50;3.53;;;;;;;26.73;51.30;99997.75;5093984;28;20250;-63
2022/08/04 07:57:10;;;;;;;6.70;3.30;;;;;;;26.75;51.27;99993.13;5058929;28;20190;-63
2022/08/04 07:59:36;;;;;;;5.47;2.70;;;;;;;26.77;51.00;100005.13;5093784;28;20183;-63
2022/08/04 08:02:01;;;;;;;4.97;3.20;;;;;;;26.76;50.94;100009.28;5092338;28;20196;-63
2022/08/04 08:04:27;;;;;;;4.70;3.20;;;;;;;26.78;50.63;99997.22;5093573;28;20221;-63
2022/08/04 08:06:53;;;;;;;6.10;3.23;;;;;;;26.74;50.91;99999.41;5094021;28;20223;-63
2022/08/04 08:09:20;;;;;;;7.17;3.73;;;;;;;26.75;51.43;99998.13;5093642;28;20413;-63
2022/08/04 08:11:46;;;;;;;7.53;3.30;;;;;;;26.80;51.27;100000.50;5092999;28;20661;-63
2022/08/04 08:14:12;;;;;;;6.63;3.20;;;;;;;26.80;51.38;99995.53;5093332;28;20420;-63
2022/08/04 08:16:37;;;;;;;5.80;3.67;;;;;;;26.80;51.78;99991.81;5092037;28;20521;-63
2022/08/04 08:19:03;;;;;;;6.37;3.70;;;;;;;26.84;51.11;99993.38;5093568;28;20178;-63
2022/08/04 08:21:29;;;;;;;4.60;3.20;;;;;;;26.86;51.27;99990.88;5092045;28;20182;-63
2022/08/04 08:23:54;;;;;;;5.30;3.47;;;;;;;26.84;51.64;99989.69;5093502;28;20175;-63
2022/08/04 08:26:20;;;;;;;8.57;3.20;;;;;;;26.84;50.88;99990.47;5093532;28;20166;-63
2022/08/04 08:28:45;;;;;;;5.07;3.60;;;;;;;26.89;51.37;99992.84;5093367;28;20498;-63
2022/08/04 08:31:11;;;;;;;6.90;3.10;;;;;;;26.97;50.21;99994.34;5093586;28;20629;-63
2022/08/04 08:33:36;;;;;;;6.30;3.33;;;;;;;26.92;51.36;99994.03;5093579;28;20174;-63
2022/08/04 08:36:29;;;;;;;10.03;3.70;;;;;;;26.89;50.82;99992.84;5093885;28;20239;-63
2022/08/04 08:39:18;;;;;;;6.00;3.10;;;;;;;26.94;51.36;99995.22;5093511;28;20220;-63
2022/08/04 08:41:50;;;;;;;7.73;3.47;;;;;;;26.95;50.93;99991.06;5041299;28;20848;-63
2022/08/04 08:44:44;;;;;;;6.37;3.40;;;;;;;26.94;50.74;99995.22;5093589;28;20420;-63
2022/08/04 08:47:43;;;;;;;4.57;3.57;;;;;;;27.00;51.06;99993.44;5075844;28;20960;-63
2022/08/04 08:50:32;;;;;;;4.93;3.20;;;;;;;26.96;50.69;99986.94;5073514;28;20406;-63
2022/08/04 08:53:13;;;;;;;5.57;3.33;;;;;;;26.98;50.97;99990.19;5073490;28;20885;-63
2022/08/04 08:55:54;;;;;;;7.23;3.40;;;;;;;26.99;51.34;99994.72;5071642;28;20425;-63
2022/08/04 08:58:38;;;;;;;8.23;3.33;;;;;;;26.99;51.21;99991.81;5058792;28;20558;-63
2022/08/04 09:01:09;;;;;;;6.20;3.07;;;;;;;27.04;51.16;99991.28;5077467;28;20427;-63
2022/08/04 09:03:47;;;;;;;8.30;4.00;;;;;;;27.04;51.42;99987.59;5093626;28;20424;-63
2022/08/04 09:06:36;;;;;;;7.23;3.60;;;;;;;27.03;50.85;99985.94;5093324;28;20408;-63
2022/08/04 09:09:32;;;;;;;5.40;3.43;;;;;;;27.06;51.77;99982.16;5072970;28;20771;-63
2022/08/04 09:12:24;;;;;;;5.47;3.50;;;;;;;27.06;51.16;99983.00;5081521;28;20469;-63
2022/08/04 09:15:06;;;;;;;5.20;3.50;;;;;;;27.12;51.99;99981.19;5071041;28;20780;-63
2022/08/04 09:17:40;;;;;;;7.17;3.60;;;;;;;27.11;51.96;99994.06;5072413;28;20483;-63
2022/08/04 09:20:09;;;;;;;5.27;3.50;;;;;;;27.17;51.56;99986.50;5072141;28;20421;-63
2022/08/04 09:23:03;;;;;;;4.70;2.87;;;;;;;27.21;51.32;99984.34;5071225;28;20425;-63
2022/08/04 09:25:31;;;;;;;4.40;2.93;;;;;;;27.27;51.18;99988.34;5061188;28;20441;-63
2022/08/04 09:28:05;;;;;;;9.20;4.13;;;;;;;27.20;50.97;99979.78;5072459;28;20939;-63
2022/08/04 09:30:52;;;;;;;5.73;3.33;;;;;;;27.27;51.03;99978.81;5072222;28;20483;-63
2022/08/04 09:33:27;;;;;;;4.90;3.43;;;;;;;27.30;50.81;99984.53;5053275;28;20472;-63
2022/08/04 09:36:00;;;;;;;9.87;3.30;;;;;;;27.31;50.66;99980.38;5072982;28;20453;-63
2022/08/04 09:38:56;;;;;;;7.37;3.37;;;;;;;27.34;50.05;99982.38;5070267;28;20532;-63
2022/08/04 09:41:29;;;;;;;5.87;3.07;;;;;;;27.30;49.82;99978.72;5080234;28;20452;-63
2022/08/04 09:43:58;;;;;;;4.83;2.83;;;;;;;27.36;49.40;99973.22;5084230;28;20429;-63
2022/08/04 09:46:43;;;;;;;6.13;3.40;;;;;;;27.30;49.41;99986.63;5091913;28;20945;-63
2022/08/04 09:49:31;;;;;;;5.30;2.90;;;;;;;27.32;50.58;99981.19;5076340;28;20424;-63
2022/08/04 09:52:06;;;;;;;7.13;2.97;;;;;;;27.35;50.33;99978.19;5090704;28;20429;-63
2022/08/04 09:55:05;;;;;;;5.83;3.70;;;;;;;27.36;50.51;99979.84;5090557;28;20428;-63
2022/08/04 09:57:30;;;;;;;5.37;3.33;;;;;;;27.31;49.95;99970.84;5091375;28;20440;-63
2022/08/04 10:00:02;;;;;;;4.20;2.83;;;;;;;27.31;50.92;99970.84;5091325;28;20416;-63
2022/08/04 10:02:31;;;;;;;4.80;3.77;;;;;;;27.28;50.08;99972.56;5091494;28;20174;-64
2022/08/04 10:04:56;;;;;;;3.93;3.50;;;;;;;27.25;50.12;99966.88;5091160;28;20561;-63
2022/08/04 10:08:12;;;;;;;5.50;3.30;;;;;;;27.31;50.31;99967.97;5089266;28;20809;-63
2022/08/04 10:11:06;;;;;;;5.43;2.70;;;;;;;27.32;50.99;99955.09;5045208;28;20242;-63
2022/08/04 10:14:05;;;;;;;5.30;3.50;;;;;;;27.35;50.92;99957.91;5090642;28;20413;-63
2022/08/04 10:16:57;;;;;;;4.20;3.33;;;;;;;27.39;51.02;99957.84;5049066;28;20467;-63
2022/08/04 10:19:27;;;;;;;3.70;2.90;;;;;;;27.38;50.79;99948.31;5070556;28;20432;-63
2022/08/04 10:22:14;;;;;;;4.30;2.70;;;;;;;27.59;50.08;99941.19;5080659;28;20424;-63
2022/08/04 10:24:58;;;;;;;5.00;3.27;;;;;;;27.47;50.29;99939.00;5091230;28;20412;-64
2022/08/04 10:27:53;;;;;;;3.87;2.70;;;;;;;27.53;50.03;99943.81;5089276;28;20428;-64
2022/08/04 10:30:18;;;;;;;3.93;3.10;;;;;;;27.51;49.93;99949.25;5089041;28;20501;-63
2022/08/04 10:33:16;;;;;;;5.03;2.90;;;;;;;27.53;48.98;99942.97;5089395;28;20424;-63
2022/08/04 10:35:50;;;;;;;5.53;3.37;;;;;;;27.49;49.73;99940.16;5056324;28;20190;-63
2022/08/04 10:38:27;;;;;;;8.03;2.90;;;;;;;27.50;49.31;99935.19;5073990;28;20465;-63
2022/08/04 10:40:57;;;;;;;3.73;2.70;;;;;;;27.55;48.75;99937.56;5069736;28;20516;-63
2022/08/04 10:43:31;;;;;;;4.90;3.17;;;;;;;27.56;48.57;99937.13;5071623;28;20448;-63
2022/08/04 10:46:00;;;;;;;3.93;2.97;;;;;;;27.50;48.22;99936.00;5078648;28;20435;-63
2022/08/04 10:48:47;;;;;;;5.10;2.97;;;;;;;27.48;48.66;99941.44;5079554;28;20501;-63
2022/08/04 10:51:41;;;;;;;4.13;2.70;;;;;;;27.55;48.24;99934.66;5071307;28;20436;-63
2022/08/04 10:54:08;;;;;;;5.20;3.50;;;;;;;27.52;48.39;99936.38;5071293;28;20420;-63
2022/08/04 10:56:36;;;;;;;4.80;2.37;;;;;;;27.64;47.89;99935.66;5071216;28;20559;-63
2022/08/04 10:59:07;;;;;;;3.30;2.10;;;;;;;27.58;47.35;99934.56;5072066;28;20413;-63
2022/08/04 11:01:36;;;;;;;4.03;2.80;;;;;;;27.60;47.30;99929.13;5070559;28;21375;-63
2022/08/04 11:04:09;;;;;;;5.20;3.40;;;;;;;27.71;46.83;99929.69;5078575;28;20516;-63
2022/08/04 11:06:34;;;;;;;5.50;3.50;;;;;;;27.61;47.24;99933.69;5084494;28;20414;-63
2022/08/04 11:09:00;;;;;;;4.63;3.03;;;;;;;27.62;46.74;99931.56;5069294;28;20425;-63
2022/08/04 11:11:44;;;;;;;6.00;2.83;;;;;;;27.65;47.27;99924.88;5077627;28;20241;-64
2022/08/04 11:14:10;;;;;;;3.70;2.90;;;;;;;27.60;47.38;99923.31;5067858;28;20191;-64
2022/08/04 11:16:45;;;;;;;4.60;2.70;;;;;;;27.58;47.80;99927.94;5068130;28;20991;-64
2022/08/04 11:19:35;;;;;;;3.63;2.50;;;;;;;27.62;48.07;99926.59;5077376;28;20534;-63
2022/08/04 11:22:15;;;;;;;4.40;2.80;;;;;;;27.71;46.96;99921.00;5076441;28;20779;-63
2022/08/04 11:24:47;;;;;;;5.30;2.87;;;;;;;27.65;47.62;99919.88;5076068;28;20428;-63
2022/08/04 11:27:14;;;;;;;4.70;2.50;;;;;;;27.67;47.33;99922.34;5078982;28;20424;-63
2022/08/04 11:29:49;;;;;;;7.60;2.60;;;;;;;27.66;46.96;99918.63;5076262;28;20444;-64
2022/08/04 11:32:18;;;;;;;9.00;2.30;;;;;;;27.63;46.46;99922.44;5077499;28;20866;-63
2022/08/04 11:34:47;;;;;;;7.17;2.50;;;;;;;27.73;45.11;99915.53;5077562;28;20421;-63
2022/08/04 11:37:20;;;;;;;4.67;2.33;;;;;;;27.67;46.03;99917.34;5078932;28;20463;-63
2022/08/04 11:40:00;;;;;;;5.27;2.47;;;;;;;27.63;45.21;99915.78;5076104;28;20507;-63
2022/08/04 11:42:55;;;;;;;3.80;2.70;;;;;;;27.74;44.37;99922.97;5070916;28;20436;-63
2022/08/04 11:45:36;;;;;;;3.07;2.10;;;;;;;27.72;45.85;99911.00;5080057;28;20448;-63
2022/08/04 11:48:16;;;;;;;3.40;2.40;;;;;;;27.86;44.11;99919.41;5088062;28;20416;-63
2022/08/04 11:50:49;;;;;;;4.87;2.30;;;;;;;27.76;44.38;99914.66;5086499;28;21008;-63
2022/08/04 11:53:18;;;;;;;4.77;2.87;;;;;;;27.81;43.66;99907.50;5096406;28;20841;-63
2022/08/04 11:55:44;;;;;;;13.03;2.13;;;;;;;27.74;43.34;99899.75;5095753;28;20787;-63
2022/08/04 11:58:10;;;;;;;3.00;2.07;;;;;;;27.67;44.74;99902.84;5095212;28;20455;-63
2022/08/04 12:00:37;;;;;;;4.20;1.93;;;;;;;27.67;43.78;99902.03;5085902;28;20436;-63
2022/08/04 12:03:30;;;;;;;7.37;2.60;;;;;;;27.68;44.61;99897.84;5075046;28;20421;-63
2022/08/04 12:06:24;;;;;;;3.00;2.00;;;;;;;27.79;43.02;99893.44;5074917;28;20440;-63
2022/08/04 12:09:02;;;;;;;6.23;2.10;;;;;;;27.91;42.89;99892.72;5076494;28;20445;-63
2022/08/04 12:11:43;;;;;;;3.80;2.10;;;;;;;27.92;42.64;99893.53;5077704;28;20480;-63
2022/08/04 12:14:24;;;;;;;3.40;1.77;;;;;;;27.91;42.19;99892.72;5091985;28;20416;-63